UUOO/VOZ METAR and TAF weather

Enter ICAO airport designator
Station Type Date Time Source
UUOO METAR 2023/02/06 19:30 UTC NOAA

UUOO 061930Z 06002MPS 7000 -SG OVC010 M08/M10 Q1030 R12/010060 NOSIG RMK QFE758


Station Type Date Time Source
UUOO Decoded METAR 2023/02/06 19:30 UTC NOAA

Voronez, Russia (UUOO) 51-39N 039-15E 104M
Feb 06, 2023 - 02:30 PM EST / 2023.02.06 1930 UTC
Wind: from the ENE (060 degrees) at 4 MPH (4 KT):0
Visibility: 4 mile(s):0
Sky conditions: overcast
Weather: light snow grains
Temperature: 17 F (-8 C)
Dew Point: 14 F (-10 C)
Relative Humidity: 85%
Pressure (altimeter): 30.42 in. Hg (1030 hPa)
ob: UUOO 061930Z 06002MPS 7000 -SG OVC010 M08/M10 Q1030 R12/010060 NOSIG RMK QFE758
cycle: 19

Station Type Date Time Source
UUOO TAF 2019/08/12 03:33 UTC NOAA

TAF COR TAF COR UUOO 120159 1203/1212 31003MPS CAVOK

Example: see airport list